sensor_id;sensor_type;location;lat;lon;timestamp;temperature;humidity
9410;DHT22;4744;52.576;13.568;2022-07-04T00:00:14;21.40;1.00
9410;DHT22;4744;52.576;13.568;2022-07-04T00:02:42;21.40;1.00
9410;DHT22;4744;52.576;13.568;2022-07-04T00:05:10;21.20;1.00
9410;DHT22;4744;52.576;13.568;2022-07-04T00:07:37;21.20;1.00
9410;DHT22;4744;52.576;13.568;2022-07-04T00:10:08;21.20;1.00
9410;DHT22;4744;52.576;13.568;2022-07-04T00:12:35;21.10;1.00
9410;DHT22;4744;52.576;13.568;2022-07-04T00:15:03;21.00;1.00
9410;DHT22;4744;52.576;13.568;2022-07-04T00:17:30;21.10;1.00
9410;DHT22;4744;52.576;13.568;2022-07-04T00:19:57;21.00;1.00
9410;DHT22;4744;52.576;13.568;2022-07-04T00:22:24;20.90;1.00
9410;DHT22;4744;52.576;13.568;2022-07-04T00:24:51;20.90;1.00
9410;DHT22;4744;52.576;13.568;2022-07-04T00:27:20;20.90;1.00
9410;DHT22;4744;52.576;13.568;2022-07-04T00:29:46;20.90;1.00
9410;DHT22;4744;52.576;13.568;2022-07-04T00:32:13;20.80;1.00
9410;DHT22;4744;52.576;13.568;2022-07-04T00:34:40;20.80;1.00
9410;DHT22;4744;52.576;13.568;2022-07-04T00:37:07;20.70;1.00
9410;DHT22;4744;52.576;13.568;2022-07-04T00:39:34;20.70;1.00
9410;DHT22;4744;52.576;13.568;2022-07-04T00:42:02;20.60;1.00
9410;DHT22;4744;52.576;13.568;2022-07-04T00:44:30;20.60;1.00
9410;DHT22;4744;52.576;13.568;2022-07-04T00:47:00;20.50;1.00
9410;DHT22;4744;52.576;13.568;2022-07-04T00:49:27;20.50;1.00
9410;DHT22;4744;52.576;13.568;2022-07-04T00:51:54;20.40;1.00
9410;DHT22;4744;52.576;13.568;2022-07-04T00:54:25;20.40;1.00
9410;DHT22;4744;52.576;13.568;2022-07-04T00:56:55;20.40;1.00
9410;DHT22;4744;52.576;13.568;2022-07-04T00:59:22;20.30;1.00
9410;DHT22;4744;52.576;13.568;2022-07-04T01:01:50;20.30;1.00
9410;DHT22;4744;52.576;13.568;2022-07-04T01:04:18;20.20;1.00
9410;DHT22;4744;52.576;13.568;2022-07-04T01:06:45;20.20;1.00
9410;DHT22;4744;52.576;13.568;2022-07-04T01:09:12;20.20;1.00
9410;DHT22;4744;52.576;13.568;2022-07-04T01:11:39;20.20;1.00
9410;DHT22;4744;52.576;13.568;2022-07-04T01:14:06;20.10;1.00
9410;DHT22;4744;52.576;13.568;2022-07-04T01:16:33;20.10;1.00
9410;DHT22;4744;52.576;13.568;2022-07-04T01:19:01;20.10;1.00
9410;DHT22;4744;52.576;13.568;2022-07-04T01:21:30;20.10;1.00
9410;DHT22;4744;52.576;13.568;2022-07-04T01:23:58;20.00;1.00
9410;DHT22;4744;52.576;13.568;2022-07-04T01:26:24;20.00;1.00
9410;DHT22;4744;52.576;13.568;2022-07-04T01:28:51;19.90;1.00
9410;DHT22;4744;52.576;13.568;2022-07-04T01:31:18;19.90;1.00
9410;DHT22;4744;52.576;13.568;2022-07-04T01:33:45;19.80;1.00
9410;DHT22;4744;52.576;13.568;2022-07-04T01:36:12;19.70;1.00
9410;DHT22;4744;52.576;13.568;2022-07-04T01:38:40;19.70;1.00
9410;DHT22;4744;52.576;13.568;2022-07-04T01:41:07;19.60;1.00
9410;DHT22;4744;52.576;13.568;2022-07-04T01:43:33;19.50;1.00
9410;DHT22;4744;52.576;13.568;2022-07-04T01:46:01;19.50;1.00
9410;DHT22;4744;52.576;13.568;2022-07-04T01:48:28;19.50;1.00
9410;DHT22;4744;52.576;13.568;2022-07-04T01:50:55;19.40;1.00
9410;DHT22;4744;52.576;13.568;2022-07-04T01:53:21;19.30;1.00
9410;DHT22;4744;52.576;13.568;2022-07-04T01:55:50;19.30;1.00
9410;DHT22;4744;52.576;13.568;2022-07-04T01:58:16;19.20;1.00
9410;DHT22;4744;52.576;13.568;2022-07-04T02:00:43;19.10;1.00
9410;DHT22;4744;52.576;13.568;2022-07-04T02:03:27;19.00;1.00
9410;DHT22;4744;52.576;13.568;2022-07-04T02:05:54;19.00;1.00
9410;DHT22;4744;52.576;13.568;2022-07-04T02:08:21;18.90;1.00
9410;DHT22;4744;52.576;13.568;2022-07-04T02:10:49;18.80;1.00
9410;DHT22;4744;52.576;13.568;2022-07-04T02:13:16;18.70;1.00
9410;DHT22;4744;52.576;13.568;2022-07-04T02:15:42;18.70;1.00
9410;DHT22;4744;52.576;13.568;2022-07-04T02:18:10;18.60;1.00
9410;DHT22;4744;52.576;13.568;2022-07-04T02:20:37;18.60;1.00
9410;DHT22;4744;52.576;13.568;2022-07-04T02:23:05;18.50;1.00
9410;DHT22;4744;52.576;13.568;2022-07-04T02:25:32;18.50;1.00
9410;DHT22;4744;52.576;13.568;2022-07-04T02:28:00;18.40;1.00
9410;DHT22;4744;52.576;13.568;2022-07-04T02:30:27;18.40;1.00
9410;DHT22;4744;52.576;13.568;2022-07-04T02:32:54;18.40;1.00
9410;DHT22;4744;52.576;13.568;2022-07-04T02:35:21;18.30;1.00
9410;DHT22;4744;52.576;13.568;2022-07-04T02:37:47;18.30;1.00
9410;DHT22;4744;52.576;13.568;2022-07-04T02:40:14;18.20;1.00
9410;DHT22;4744;52.576;13.568;2022-07-04T02:42:41;18.20;1.00
9410;DHT22;4744;52.576;13.568;2022-07-04T02:45:10;18.10;1.00
9410;DHT22;4744;52.576;13.568;2022-07-04T02:47:36;18.10;1.00
9410;DHT22;4744;52.576;13.568;2022-07-04T02:50:04;18.10;1.00
9410;DHT22;4744;52.576;13.568;2022-07-04T02:52:31;18.00;1.00
9410;DHT22;4744;52.576;13.568;2022-07-04T02:54:58;18.00;1.00
9410;DHT22;4744;52.576;13.568;2022-07-04T02:57:25;18.00;1.00
9410;DHT22;4744;52.576;13.568;2022-07-04T02:59:52;17.90;1.00
9410;DHT22;4744;52.576;13.568;2022-07-04T03:02:20;17.90;1.00
9410;DHT22;4744;52.576;13.568;2022-07-04T03:04:47;18.00;1.00
9410;DHT22;4744;52.576;13.568;2022-07-04T03:07:13;17.90;1.00
9410;DHT22;4744;52.576;13.568;2022-07-04T03:09:40;17.90;1.00
9410;DHT22;4744;52.576;13.568;2022-07-04T03:12:08;17.90;1.00
9410;DHT22;4744;52.576;13.568;2022-07-04T03:14:35;17.90;1.00
9410;DHT22;4744;52.576;13.568;2022-07-04T03:17:01;17.90;1.00
9410;DHT22;4744;52.576;13.568;2022-07-04T03:19:29;17.90;1.00
9410;DHT22;4744;52.576;13.568;2022-07-04T03:21:56;17.80;1.00
9410;DHT22;4744;52.576;13.568;2022-07-04T03:24:23;17.80;1.00
9410;DHT22;4744;52.576;13.568;2022-07-04T03:26:50;17.80;1.00
9410;DHT22;4744;52.576;13.568;2022-07-04T03:29:17;17.70;1.00
9410;DHT22;4744;52.576;13.568;2022-07-04T03:31:44;17.80;1.00
9410;DHT22;4744;52.576;13.568;2022-07-04T03:34:11;17.80;1.00
9410;DHT22;4744;52.576;13.568;2022-07-04T03:36:39;17.80;1.00
9410;DHT22;4744;52.576;13.568;2022-07-04T03:39:06;17.80;1.00
9410;DHT22;4744;52.576;13.568;2022-07-04T03:41:33;17.80;1.00
9410;DHT22;4744;52.576;13.568;2022-07-04T03:44:01;17.80;1.00
9410;DHT22;4744;52.576;13.568;2022-07-04T03:46:28;17.80;1.00
9410;DHT22;4744;52.576;13.568;2022-07-04T03:48:55;17.70;1.00
9410;DHT22;4744;52.576;13.568;2022-07-04T03:51:22;17.70;1.00
9410;DHT22;4744;52.576;13.568;2022-07-04T03:53:50;17.70;1.00
9410;DHT22;4744;52.576;13.568;2022-07-04T03:56:17;17.70;1.00
9410;DHT22;4744;52.576;13.568;2022-07-04T03:58:44;17.70;1.00
9410;DHT22;4744;52.576;13.568;2022-07-04T04:01:14;17.70;1.00
9410;DHT22;4744;52.576;13.568;2022-07-04T04:03:41;17.70;1.00
9410;DHT22;4744;52.576;13.568;2022-07-04T04:06:25;17.80;1.00
9410;DHT22;4744;52.576;13.568;2022-07-04T04:08:53;17.80;1.00
9410;DHT22;4744;52.576;13.568;2022-07-04T04:11:20;17.80;1.00
9410;DHT22;4744;52.576;13.568;2022-07-04T04:13:47;17.80;1.00
9410;DHT22;4744;52.576;13.568;2022-07-04T04:16:13;17.90;1.00
9410;DHT22;4744;52.576;13.568;2022-07-04T04:18:40;17.90;1.00
9410;DHT22;4744;52.576;13.568;2022-07-04T04:21:07;17.90;1.00
9410;DHT22;4744;52.576;13.568;2022-07-04T04:23:34;17.90;1.00
9410;DHT22;4744;52.576;13.568;2022-07-04T04:26:02;18.00;1.00
9410;DHT22;4744;52.576;13.568;2022-07-04T04:28:29;18.00;1.00
9410;DHT22;4744;52.576;13.568;2022-07-04T04:30:55;18.00;1.00
9410;DHT22;4744;52.576;13.568;2022-07-04T04:33:22;18.10;1.00
9410;DHT22;4744;52.576;13.568;2022-07-04T04:35:49;18.10;1.00
9410;DHT22;4744;52.576;13.568;2022-07-04T04:38:16;18.20;1.00
9410;DHT22;4744;52.576;13.568;2022-07-04T04:40:42;18.30;1.00
9410;DHT22;4744;52.576;13.568;2022-07-04T04:43:11;18.30;1.00
9410;DHT22;4744;52.576;13.568;2022-07-04T04:45:37;18.30;1.00
9410;DHT22;4744;52.576;13.568;2022-07-04T04:48:05;18.30;1.00
9410;DHT22;4744;52.576;13.568;2022-07-04T04:50:33;18.30;1.00
9410;DHT22;4744;52.576;13.568;2022-07-04T04:53:00;18.30;1.00
9410;DHT22;4744;52.576;13.568;2022-07-04T04:55:27;18.40;1.00
9410;DHT22;4744;52.576;13.568;2022-07-04T04:57:54;18.40;1.00
9410;DHT22;4744;52.576;13.568;2022-07-04T05:00:22;18.40;1.00
9410;DHT22;4744;52.576;13.568;2022-07-04T05:02:49;18.40;1.00
9410;DHT22;4744;52.576;13.568;2022-07-04T05:05:16;18.40;1.00
9410;DHT22;4744;52.576;13.568;2022-07-04T05:07:43;18.40;1.00
9410;DHT22;4744;52.576;13.568;2022-07-04T05:10:10;18.40;1.00
9410;DHT22;4744;52.576;13.568;2022-07-04T05:12:37;18.40;1.00
9410;DHT22;4744;52.576;13.568;2022-07-04T05:15:04;18.40;1.00
9410;DHT22;4744;52.576;13.568;2022-07-04T05:17:33;18.40;1.00
9410;DHT22;4744;52.576;13.568;2022-07-04T05:20:00;18.40;1.00
9410;DHT22;4744;52.576;13.568;2022-07-04T05:22:26;18.40;1.00
9410;DHT22;4744;52.576;13.568;2022-07-04T05:24:53;18.50;1.00
9410;DHT22;4744;52.576;13.568;2022-07-04T05:27:20;18.60;1.00
9410;DHT22;4744;52.576;13.568;2022-07-04T05:29:47;18.60;1.00
9410;DHT22;4744;52.576;13.568;2022-07-04T05:32:14;18.80;1.00
9410;DHT22;4744;52.576;13.568;2022-07-04T05:34:42;18.80;1.00
9410;DHT22;4744;52.576;13.568;2022-07-04T05:37:09;18.80;1.00
9410;DHT22;4744;52.576;13.568;2022-07-04T05:39:36;18.90;1.00
9410;DHT22;4744;52.576;13.568;2022-07-04T05:42:03;18.90;1.00
9410;DHT22;4744;52.576;13.568;2022-07-04T05:44:30;18.90;1.00
9410;DHT22;4744;52.576;13.568;2022-07-04T05:46:56;18.90;1.00
9410;DHT22;4744;52.576;13.568;2022-07-04T05:49:23;18.90;1.00
9410;DHT22;4744;52.576;13.568;2022-07-04T05:51:51;18.90;1.00
9410;DHT22;4744;52.576;13.568;2022-07-04T05:54:18;19.00;1.00
9410;DHT22;4744;52.576;13.568;2022-07-04T05:56:45;19.10;1.00
9410;DHT22;4744;52.576;13.568;2022-07-04T05:59:12;19.20;1.00
9410;DHT22;4744;52.576;13.568;2022-07-04T06:01:39;19.40;1.00
9410;DHT22;4744;52.576;13.568;2022-07-04T06:04:06;19.50;1.00
9410;DHT22;4744;52.576;13.568;2022-07-04T06:06:33;19.70;1.00
9410;DHT22;4744;52.576;13.568;2022-07-04T06:09:02;19.80;1.00
9410;DHT22;4744;52.576;13.568;2022-07-04T06:11:29;19.90;1.00
9410;DHT22;4744;52.576;13.568;2022-07-04T06:13:56;20.00;1.00
9410;DHT22;4744;52.576;13.568;2022-07-04T06:16:23;20.10;1.00
9410;DHT22;4744;52.576;13.568;2022-07-04T06:18:50;20.10;1.00
9410;DHT22;4744;52.576;13.568;2022-07-04T06:21:17;20.20;1.00
9410;DHT22;4744;52.576;13.568;2022-07-04T06:23:44;20.30;1.00
9410;DHT22;4744;52.576;13.568;2022-07-04T06:26:12;20.40;1.00
9410;DHT22;4744;52.576;13.568;2022-07-04T06:28:39;20.40;1.00
9410;DHT22;4744;52.576;13.568;2022-07-04T06:31:05;20.40;1.00
9410;DHT22;4744;52.576;13.568;2022-07-04T06:33:32;20.30;1.00
9410;DHT22;4744;52.576;13.568;2022-07-04T06:36:19;20.20;1.00
9410;DHT22;4744;52.576;13.568;2022-07-04T06:38:45;20.20;1.00
9410;DHT22;4744;52.576;13.568;2022-07-04T06:41:13;20.20;1.00
9410;DHT22;4744;52.576;13.568;2022-07-04T06:43:40;20.20;1.00
9410;DHT22;4744;52.576;13.568;2022-07-04T06:46:06;20.20;1.00
9410;DHT22;4744;52.576;13.568;2022-07-04T06:48:33;20.30;1.00
9410;DHT22;4744;52.576;13.568;2022-07-04T06:51:00;20.30;1.00
9410;DHT22;4744;52.576;13.568;2022-07-04T06:53:27;20.30;1.00
9410;DHT22;4744;52.576;13.568;2022-07-04T06:55:54;20.40;1.00
9410;DHT22;4744;52.576;13.568;2022-07-04T06:58:22;20.40;1.00
9410;DHT22;4744;52.576;13.568;2022-07-04T07:00:48;20.50;1.00
9410;DHT22;4744;52.576;13.568;2022-07-04T07:03:15;20.60;1.00
9410;DHT22;4744;52.576;13.568;2022-07-04T07:05:42;20.60;1.00
9410;DHT22;4744;52.576;13.568;2022-07-04T07:08:09;20.60;1.00
9410;DHT22;4744;52.576;13.568;2022-07-04T07:10:36;20.60;1.00
9410;DHT22;4744;52.576;13.568;2022-07-04T07:13:03;20.60;1.00
9410;DHT22;4744;52.576;13.568;2022-07-04T07:15:31;20.70;1.00
9410;DHT22;4744;52.576;13.568;2022-07-04T07:18:00;20.70;1.00
9410;DHT22;4744;52.576;13.568;2022-07-04T07:20:27;20.80;1.00
9410;DHT22;4744;52.576;13.568;2022-07-04T07:22:54;20.80;1.00
9410;DHT22;4744;52.576;13.568;2022-07-04T07:25:21;20.90;1.00
9410;DHT22;4744;52.576;13.568;2022-07-04T07:27:48;20.90;1.00
9410;DHT22;4744;52.576;13.568;2022-07-04T07:30:14;20.90;1.00
9410;DHT22;4744;52.576;13.568;2022-07-04T07:32:43;21.00;1.00
9410;DHT22;4744;52.576;13.568;2022-07-04T07:35:11;21.00;1.00
9410;DHT22;4744;52.576;13.568;2022-07-04T07:37:38;21.00;1.00
9410;DHT22;4744;52.576;13.568;2022-07-04T07:40:06;21.10;1.00
9410;DHT22;4744;52.576;13.568;2022-07-04T07:42:33;21.10;1.00
9410;DHT22;4744;52.576;13.568;2022-07-04T07:45:00;21.20;1.00
9410;DHT22;4744;52.576;13.568;2022-07-04T07:47:27;21.20;1.00
9410;DHT22;4744;52.576;13.568;2022-07-04T07:49:56;21.20;1.00
9410;DHT22;4744;52.576;13.568;2022-07-04T07:52:22;21.10;1.00
9410;DHT22;4744;52.576;13.568;2022-07-04T07:54:49;21.00;1.00
9410;DHT22;4744;52.576;13.568;2022-07-04T07:57:16;20.90;1.00
9410;DHT22;4744;52.576;13.568;2022-07-04T07:59:43;20.90;1.00
9410;DHT22;4744;52.576;13.568;2022-07-04T08:02:10;20.90;1.00
9410;DHT22;4744;52.576;13.568;2022-07-04T08:04:36;20.90;1.00
9410;DHT22;4744;52.576;13.568;2022-07-04T08:07:07;21.00;1.00
9410;DHT22;4744;52.576;13.568;2022-07-04T08:09:34;21.10;1.00
9410;DHT22;4744;52.576;13.568;2022-07-04T08:12:03;21.20;1.00
9410;DHT22;4744;52.576;13.568;2022-07-04T08:14:30;21.20;1.00
9410;DHT22;4744;52.576;13.568;2022-07-04T08:16:58;21.20;1.00
9410;DHT22;4744;52.576;13.568;2022-07-04T08:19:25;21.20;1.00
9410;DHT22;4744;52.576;13.568;2022-07-04T08:21:52;21.00;1.00
9410;DHT22;4744;52.576;13.568;2022-07-04T08:24:20;20.90;1.00
9410;DHT22;4744;52.576;13.568;2022-07-04T08:26:48;20.80;1.00
9410;DHT22;4744;52.576;13.568;2022-07-04T08:29:15;20.70;1.00
9410;DHT22;4744;52.576;13.568;2022-07-04T08:31:42;20.80;1.00
9410;DHT22;4744;52.576;13.568;2022-07-04T08:34:09;20.80;1.00
9410;DHT22;4744;52.576;13.568;2022-07-04T08:36:36;20.80;1.00
9410;DHT22;4744;52.576;13.568;2022-07-04T08:39:03;20.90;1.00
9410;DHT22;4744;52.576;13.568;2022-07-04T08:41:37;20.90;1.00
9410;DHT22;4744;52.576;13.568;2022-07-04T08:44:05;20.90;1.00
9410;DHT22;4744;52.576;13.568;2022-07-04T08:46:35;20.90;1.00
9410;DHT22;4744;52.576;13.568;2022-07-04T08:49:03;20.80;1.00
9410;DHT22;4744;52.576;13.568;2022-07-04T08:51:40;20.90;1.00
9410;DHT22;4744;52.576;13.568;2022-07-04T08:54:11;21.20;1.00
9410;DHT22;4744;52.576;13.568;2022-07-04T08:56:55;21.40;1.00
9410;DHT22;4744;52.576;13.568;2022-07-04T08:59:39;21.50;1.00
9410;DHT22;4744;52.576;13.568;2022-07-04T09:02:11;21.70;1.00
9410;DHT22;4744;52.576;13.568;2022-07-04T09:04:40;21.90;1.00
9410;DHT22;4744;52.576;13.568;2022-07-04T09:07:09;21.90;1.00
9410;DHT22;4744;52.576;13.568;2022-07-04T09:09:37;22.00;1.00
9410;DHT22;4744;52.576;13.568;2022-07-04T09:12:07;22.20;1.00
9410;DHT22;4744;52.576;13.568;2022-07-04T09:14:34;22.30;1.00
9410;DHT22;4744;52.576;13.568;2022-07-04T09:17:01;22.40;1.00
9410;DHT22;4744;52.576;13.568;2022-07-04T09:19:28;22.40;1.00
9410;DHT22;4744;52.576;13.568;2022-07-04T09:21:54;22.40;1.00
9410;DHT22;4744;52.576;13.568;2022-07-04T09:24:46;22.50;1.00
9410;DHT22;4744;52.576;13.568;2022-07-04T09:27:29;22.50;1.00
9410;DHT22;4744;52.576;13.568;2022-07-04T09:29:56;22.60;1.00
9410;DHT22;4744;52.576;13.568;2022-07-04T09:32:32;22.70;1.00
9410;DHT22;4744;52.576;13.568;2022-07-04T09:34:59;22.70;1.00
9410;DHT22;4744;52.576;13.568;2022-07-04T09:37:33;22.70;1.00
9410;DHT22;4744;52.576;13.568;2022-07-04T09:40:01;22.70;1.00
9410;DHT22;4744;52.576;13.568;2022-07-04T09:42:36;22.90;1.00
9410;DHT22;4744;52.576;13.568;2022-07-04T09:45:09;23.00;1.00
9410;DHT22;4744;52.576;13.568;2022-07-04T09:47:37;22.90;1.00
9410;DHT22;4744;52.576;13.568;2022-07-04T09:50:07;23.10;1.00
9410;DHT22;4744;52.576;13.568;2022-07-04T09:52:44;23.10;1.00
9410;DHT22;4744;52.576;13.568;2022-07-04T09:55:11;23.30;1.00
9410;DHT22;4744;52.576;13.568;2022-07-04T09:57:44;23.30;1.00
9410;DHT22;4744;52.576;13.568;2022-07-04T10:00:23;23.40;1.00
9410;DHT22;4744;52.576;13.568;2022-07-04T10:02:51;23.40;1.00
9410;DHT22;4744;52.576;13.568;2022-07-04T10:05:20;23.40;1.00
9410;DHT22;4744;52.576;13.568;2022-07-04T10:07:48;23.50;1.00
9410;DHT22;4744;52.576;13.568;2022-07-04T10:10:22;23.50;1.00
9410;DHT22;4744;52.576;13.568;2022-07-04T10:12:52;23.50;1.00
9410;DHT22;4744;52.576;13.568;2022-07-04T10:15:20;23.70;1.00
9410;DHT22;4744;52.576;13.568;2022-07-04T10:17:47;23.90;1.00
9410;DHT22;4744;52.576;13.568;2022-07-04T10:20:14;24.10;1.00
9410;DHT22;4744;52.576;13.568;2022-07-04T10:22:41;24.30;1.00
9410;DHT22;4744;52.576;13.568;2022-07-04T10:25:09;24.40;1.00
9410;DHT22;4744;52.576;13.568;2022-07-04T10:27:37;24.50;1.00
9410;DHT22;4744;52.576;13.568;2022-07-04T10:30:07;24.50;1.00
9410;DHT22;4744;52.576;13.568;2022-07-04T10:32:36;24.40;1.00
9410;DHT22;4744;52.576;13.568;2022-07-04T10:35:04;24.40;1.00
9410;DHT22;4744;52.576;13.568;2022-07-04T10:38:00;24.60;1.00
9410;DHT22;4744;52.576;13.568;2022-07-04T10:40:44;24.80;1.00
9410;DHT22;4744;52.576;13.568;2022-07-04T10:46:50;24.50;1.00
9410;DHT22;4744;52.576;13.568;2022-07-04T10:49:20;24.40;1.00
9410;DHT22;4744;52.576;13.568;2022-07-04T10:51:48;24.40;1.00
9410;DHT22;4744;52.576;13.568;2022-07-04T10:54:17;24.30;1.00
9410;DHT22;4744;52.576;13.568;2022-07-04T10:56:50;24.40;1.00
9410;DHT22;4744;52.576;13.568;2022-07-04T10:59:19;24.50;1.00
9410;DHT22;4744;52.576;13.568;2022-07-04T11:01:49;24.60;1.00
9410;DHT22;4744;52.576;13.568;2022-07-04T11:07:18;25.30;1.00
9410;DHT22;4744;52.576;13.568;2022-07-04T11:09:45;25.60;1.00
9410;DHT22;4744;52.576;13.568;2022-07-04T11:12:13;25.80;1.00
9410;DHT22;4744;52.576;13.568;2022-07-04T11:14:42;25.50;1.00
9410;DHT22;4744;52.576;13.568;2022-07-04T11:17:12;25.40;1.00
9410;DHT22;4744;52.576;13.568;2022-07-04T11:19:40;25.20;1.00
9410;DHT22;4744;52.576;13.568;2022-07-04T11:22:08;25.30;1.00
9410;DHT22;4744;52.576;13.568;2022-07-04T11:24:37;25.10;1.00
9410;DHT22;4744;52.576;13.568;2022-07-04T11:27:06;25.00;1.00
9410;DHT22;4744;52.576;13.568;2022-07-04T11:29:33;25.00;1.00
9410;DHT22;4744;52.576;13.568;2022-07-04T11:32:01;25.30;1.00
9410;DHT22;4744;52.576;13.568;2022-07-04T11:34:32;25.50;1.00
9410;DHT22;4744;52.576;13.568;2022-07-04T11:37:01;25.90;1.00
9410;DHT22;4744;52.576;13.568;2022-07-04T11:39:28;26.20;1.00
9410;DHT22;4744;52.576;13.568;2022-07-04T11:41:55;26.50;1.00
9410;DHT22;4744;52.576;13.568;2022-07-04T11:44:41;26.60;1.00
9410;DHT22;4744;52.576;13.568;2022-07-04T11:47:28;26.70;1.00
9410;DHT22;4744;52.576;13.568;2022-07-04T11:49:59;26.50;1.00
9410;DHT22;4744;52.576;13.568;2022-07-04T11:52:28;26.30;1.00
9410;DHT22;4744;52.576;13.568;2022-07-04T11:54:55;26.00;1.00
9410;DHT22;4744;52.576;13.568;2022-07-04T11:57:25;25.70;1.00
9410;DHT22;4744;52.576;13.568;2022-07-04T11:59:58;25.20;1.00
9410;DHT22;4744;52.576;13.568;2022-07-04T12:02:26;25.20;1.00
9410;DHT22;4744;52.576;13.568;2022-07-04T12:04:54;24.90;1.00
9410;DHT22;4744;52.576;13.568;2022-07-04T12:07:24;25.00;1.00
9410;DHT22;4744;52.576;13.568;2022-07-04T12:09:52;25.20;1.00
9410;DHT22;4744;52.576;13.568;2022-07-04T12:12:19;25.50;1.00
9410;DHT22;4744;52.576;13.568;2022-07-04T12:14:57;25.70;1.00
9410;DHT22;4744;52.576;13.568;2022-07-04T12:17:30;25.90;1.00
9410;DHT22;4744;52.576;13.568;2022-07-04T12:19:58;26.20;1.00
9410;DHT22;4744;52.576;13.568;2022-07-04T12:22:33;26.40;1.00
9410;DHT22;4744;52.576;13.568;2022-07-04T12:25:00;26.40;1.00
9410;DHT22;4744;52.576;13.568;2022-07-04T12:27:28;26.10;1.00
9410;DHT22;4744;52.576;13.568;2022-07-04T12:29:57;26.20;1.00
9410;DHT22;4744;52.576;13.568;2022-07-04T12:32:43;26.40;1.00
9410;DHT22;4744;52.576;13.568;2022-07-04T12:35:15;26.70;1.00
9410;DHT22;4744;52.576;13.568;2022-07-04T12:38:03;26.60;1.00
9410;DHT22;4744;52.576;13.568;2022-07-04T12:40:29;26.10;1.00
9410;DHT22;4744;52.576;13.568;2022-07-04T12:42:56;25.60;1.00
9410;DHT22;4744;52.576;13.568;2022-07-04T12:45:24;25.10;1.00
9410;DHT22;4744;52.576;13.568;2022-07-04T12:47:51;24.90;1.00
9410;DHT22;4744;52.576;13.568;2022-07-04T12:50:25;24.70;1.00
9410;DHT22;4744;52.576;13.568;2022-07-04T12:52:52;24.60;1.00
9410;DHT22;4744;52.576;13.568;2022-07-04T12:55:20;24.40;1.00
9410;DHT22;4744;52.576;13.568;2022-07-04T12:57:47;24.40;1.00
9410;DHT22;4744;52.576;13.568;2022-07-04T13:00:14;24.40;1.00
9410;DHT22;4744;52.576;13.568;2022-07-04T13:02:41;24.50;1.00
9410;DHT22;4744;52.576;13.568;2022-07-04T13:05:08;24.80;1.00
9410;DHT22;4744;52.576;13.568;2022-07-04T13:07:35;25.20;1.00
9410;DHT22;4744;52.576;13.568;2022-07-04T13:10:02;25.50;1.00
9410;DHT22;4744;52.576;13.568;2022-07-04T13:12:30;25.80;1.00
9410;DHT22;4744;52.576;13.568;2022-07-04T13:14:59;26.00;1.00
9410;DHT22;4744;52.576;13.568;2022-07-04T13:17:26;26.30;1.00
9410;DHT22;4744;52.576;13.568;2022-07-04T13:19:53;26.50;1.00
9410;DHT22;4744;52.576;13.568;2022-07-04T13:22:22;26.40;1.00
9410;DHT22;4744;52.576;13.568;2022-07-04T13:24:49;26.10;1.00
9410;DHT22;4744;52.576;13.568;2022-07-04T13:27:17;26.00;1.00
9410;DHT22;4744;52.576;13.568;2022-07-04T13:29:45;26.10;1.00
9410;DHT22;4744;52.576;13.568;2022-07-04T13:32:12;26.30;1.00
9410;DHT22;4744;52.576;13.568;2022-07-04T13:34:39;26.60;1.00
9410;DHT22;4744;52.576;13.568;2022-07-04T13:37:05;26.70;1.00
9410;DHT22;4744;52.576;13.568;2022-07-04T13:39:32;26.90;1.00
9410;DHT22;4744;52.576;13.568;2022-07-04T13:42:00;26.90;1.00
9410;DHT22;4744;52.576;13.568;2022-07-04T13:44:27;26.90;1.00
9410;DHT22;4744;52.576;13.568;2022-07-04T13:46:55;26.90;1.00
9410;DHT22;4744;52.576;13.568;2022-07-04T13:49:24;26.90;1.00
9410;DHT22;4744;52.576;13.568;2022-07-04T13:51:50;26.70;1.00
9410;DHT22;4744;52.576;13.568;2022-07-04T13:54:17;26.50;1.00
9410;DHT22;4744;52.576;13.568;2022-07-04T13:56:45;26.10;1.00
9410;DHT22;4744;52.576;13.568;2022-07-04T13:59:12;26.00;1.00
9410;DHT22;4744;52.576;13.568;2022-07-04T14:01:39;25.90;1.00
9410;DHT22;4744;52.576;13.568;2022-07-04T14:04:08;25.90;1.00
9410;DHT22;4744;52.576;13.568;2022-07-04T14:06:34;26.00;1.00
9410;DHT22;4744;52.576;13.568;2022-07-04T14:09:01;26.00;1.00
9410;DHT22;4744;52.576;13.568;2022-07-04T14:11:28;25.90;1.00
9410;DHT22;4744;52.576;13.568;2022-07-04T14:13:55;25.70;1.00
9410;DHT22;4744;52.576;13.568;2022-07-04T14:16:22;25.70;1.00
9410;DHT22;4744;52.576;13.568;2022-07-04T14:18:49;25.60;1.00
9410;DHT22;4744;52.576;13.568;2022-07-04T14:21:17;25.50;1.00
9410;DHT22;4744;52.576;13.568;2022-07-04T14:23:44;25.60;1.00
9410;DHT22;4744;52.576;13.568;2022-07-04T14:26:12;25.70;1.00
9410;DHT22;4744;52.576;13.568;2022-07-04T14:28:40;25.90;1.00
9410;DHT22;4744;52.576;13.568;2022-07-04T14:31:07;25.90;1.00
9410;DHT22;4744;52.576;13.568;2022-07-04T14:33:34;25.90;1.00
9410;DHT22;4744;52.576;13.568;2022-07-04T14:36:02;25.90;1.00
9410;DHT22;4744;52.576;13.568;2022-07-04T14:38:30;25.80;1.00
9410;DHT22;4744;52.576;13.568;2022-07-04T14:40:57;25.80;1.00
9410;DHT22;4744;52.576;13.568;2022-07-04T14:43:39;25.90;1.00
9410;DHT22;4744;52.576;13.568;2022-07-04T14:46:06;25.80;1.00
9410;DHT22;4744;52.576;13.568;2022-07-04T14:48:34;25.60;1.00
9410;DHT22;4744;52.576;13.568;2022-07-04T14:51:01;25.30;1.00
9410;DHT22;4744;52.576;13.568;2022-07-04T14:53:29;25.00;1.00
9410;DHT22;4744;52.576;13.568;2022-07-04T14:55:56;24.80;1.00
9410;DHT22;4744;52.576;13.568;2022-07-04T14:58:23;24.70;1.00
9410;DHT22;4744;52.576;13.568;2022-07-04T15:00:50;24.70;1.00
9410;DHT22;4744;52.576;13.568;2022-07-04T15:03:17;24.80;1.00
9410;DHT22;4744;52.576;13.568;2022-07-04T15:05:44;24.90;1.00
9410;DHT22;4744;52.576;13.568;2022-07-04T15:08:11;24.90;1.00
9410;DHT22;4744;52.576;13.568;2022-07-04T15:10:39;25.10;1.00
9410;DHT22;4744;52.576;13.568;2022-07-04T15:13:06;25.20;1.00
9410;DHT22;4744;52.576;13.568;2022-07-04T15:15:33;25.30;1.00
9410;DHT22;4744;52.576;13.568;2022-07-04T15:18:00;25.50;1.00
9410;DHT22;4744;52.576;13.568;2022-07-04T15:20:27;25.40;1.00
9410;DHT22;4744;52.576;13.568;2022-07-04T15:23:13;25.30;1.00
9410;DHT22;4744;52.576;13.568;2022-07-04T15:25:59;25.20;1.00
9410;DHT22;4744;52.576;13.568;2022-07-04T15:28:26;24.80;1.00
9410;DHT22;4744;52.576;13.568;2022-07-04T15:30:53;24.60;1.00
9410;DHT22;4744;52.576;13.568;2022-07-04T15:33:20;24.50;1.00
9410;DHT22;4744;52.576;13.568;2022-07-04T15:35:52;24.50;1.00
9410;DHT22;4744;52.576;13.568;2022-07-04T15:38:20;24.70;1.00
9410;DHT22;4744;52.576;13.568;2022-07-04T15:40:46;24.90;1.00
9410;DHT22;4744;52.576;13.568;2022-07-04T15:43:15;25.20;1.00
9410;DHT22;4744;52.576;13.568;2022-07-04T15:45:42;25.50;1.00
9410;DHT22;4744;52.576;13.568;2022-07-04T15:48:09;25.70;1.00
9410;DHT22;4744;52.576;13.568;2022-07-04T15:50:36;25.80;1.00
9410;DHT22;4744;52.576;13.568;2022-07-04T15:53:02;25.90;1.00
9410;DHT22;4744;52.576;13.568;2022-07-04T15:55:29;26.00;1.00
9410;DHT22;4744;52.576;13.568;2022-07-04T15:57:56;26.00;1.00
9410;DHT22;4744;52.576;13.568;2022-07-04T16:00:24;26.00;1.00
9410;DHT22;4744;52.576;13.568;2022-07-04T16:02:51;25.90;1.00
9410;DHT22;4744;52.576;13.568;2022-07-04T16:05:18;25.80;1.00
9410;DHT22;4744;52.576;13.568;2022-07-04T16:07:45;25.60;1.00
9410;DHT22;4744;52.576;13.568;2022-07-04T16:10:12;25.60;1.00
9410;DHT22;4744;52.576;13.568;2022-07-04T16:12:39;25.60;1.00
9410;DHT22;4744;52.576;13.568;2022-07-04T16:15:06;25.60;1.00